• Join FlightAware (Why Join?)
  • Login
  • US Flag 
10:23PM EDT


 

Airport Tracker/Info


-or-


 

Live Flight TrackerFlight Track Log ✈ ASQ2592 ✈ 11-Jun-2013 ✈ KSHV - KDFW

Flight Track Log - Related Links

Times and Time Zones

All times are in EDT time to prevent confusion due to time zone crossing. See the ASQ2592 flight status page for this flight to view local times or setup timezone preferences in your user account.

Time Position Orientation Groundspeed Altitude Reporting Facility
EDT Latitude Longitude Course Direction KTS MPH feet Rate Location/Type
03:26PM 32.3614 -93.8522 208° Southwest 206 237 4,700  Level Fort Worth Center
03:27PM 32.3658 -93.9381 274° West 217 250 6,900 2,400 Climbing Fort Worth Center
03:28PM 32.3747 -94.0336 276° West 273 314 9,600 1,800 Climbing Fort Worth Center
03:29PM 32.3814 -94.1319 275° West 296 341 10,500 900 Climbing Fort Worth Center
03:30PM 32.3886 -94.2519 274° West 351 404 11,500 1,200 Climbing Fort Worth Center
03:31PM 32.3958 -94.3747 274° West 374 430 12,900 1,380 Climbing Fort Worth Center
03:32PM 32.4053 -94.5025 275° West 385 443 14,300 1,260 Climbing Fort Worth Center
03:33PM 32.4122 -94.6303 274° West 385 443 15,500 900 Climbing Fort Worth Center
03:34PM 32.4125 -94.7408 270° West 385 443 16,200 780 Climbing Fort Worth Center
03:35PM 32.3967 -94.8742 262° West 396 456 17,100 840 Climbing Fort Worth Center
03:36PM 32.3783 -95.0100 261° West 413 475 17,900 780 Climbing Fort Worth Center
03:37PM 32.3581 -95.1483 260° West 424 488 18,700 780 Climbing Fort Worth Center
03:38PM 32.3372 -95.2842 260° West 430 495 19,500 600 Climbing Fort Worth Center
03:39PM 32.3228 -95.4219 263° West 430 495 20,000 240 Climbing Fort Worth Center
03:40PM 32.3314 -95.5669 274° West 430 495 20,000  Level Fort Worth Center
03:41PM 32.3397 -95.7192 274° West 444 511 20,000  Level Fort Worth Center
03:42PM 32.3500 -95.8667 275° West 450 518 20,000  Level Fort Worth Center
03:43PM 32.3581 -96.0139 274° West 460 529 20,000  Level Fort Worth Center
03:44PM 32.3661 -96.1811 273° West 460 529 20,000 -1,080 Level Fort Worth Center
03:45PM 32.3736 -96.3164 274° West 460 529 17,900 -2,400 Descending Fort Worth Center
03:46PM 32.4019 -96.4661 283° West 441 507 15,200 -2,100 Descending Fort Worth Center
03:47PM 32.4650 -96.5442 314° West 378 435 13,700 -1,800 Descending Fort Worth Center
03:48PM 32.5408 -96.6397 313° West 367 422 11,700 -1,380 Descending Fort Worth Center
03:49PM 32.6039 -96.7156 315° West 345 397 11,000 -540 Descending Fort Worth Center
03:49PM 32.6333 -96.7500 315° West 307 353 11,000 -120 Level Dallas / Fort Worth TRACON
03:50PM 32.7000 -96.8167 320° Northwest 322 371 10,900 -60 Descending Dallas / Fort Worth TRACON
03:51PM 32.7667 -96.9000 314° West 321 369 10,900 -360 Level Dallas / Fort Worth TRACON
03:53PM 32.8167 -96.9833 306° West 299 344 10,200 -1,380 Descending Dallas / Fort Worth TRACON
03:54PM 32.8667 -97.0667 306° West 300 345 8,100 -1,800 Descending Dallas / Fort Worth TRACON
03:54PM 32.9167 -97.1167 320° Northwest 255 293 6,800 -1,620 Descending Dallas / Fort Worth TRACON
03:55PM 33.0000 -97.1333 350° North 252 290 5,100 -1,680 Descending Dallas / Fort Worth TRACON
03:56PM 33.0167 -97.1336 359° North 244 281 4,300 -2,040 Descending Fort Worth Center
03:56PM 33.0667 -97.1167 16° North 243 280 3,100 -900 Descending Dallas / Fort Worth TRACON
03:58PM 33.0500 -97.0667 112° Southeast 182 209 2,900 -420 Descending Dallas / Fort Worth TRACON
03:59PM 33.0000 -97.0500 164° South 162 186 2,300 -720 Descending Dallas / Fort Worth TRACON
04:00PM 32.9667 -97.0500 180° South 124 143 1,500 -720 Descending Dallas / Fort Worth TRACON
04:01PM 32.9333 -97.0500 180° South 135 155 900 -600 Descending Dallas / Fort Worth TRACON